Time;durP1;ratioP1;P1;durP2;ratioP2;P2;SDS_P1;SDS_P2;PMS_P1;PMS_P2;Temp;Humidity;BMP_temperature;BMP_pressure;BME280_temperature;BME280_humidity;BME280_pressure;Samples;Min_cycle;Max_cycle;Signal;HPM_P1;HPM_P2
2024/02/28 00:02:23;;;;;;;45.27;13.20;;;12.90;99.90;;;;;;5030401;28;20199;-59
2024/02/28 00:04:50;;;;;;;41.60;12.73;;;12.90;99.90;;;;;;5030624;28;20207;-59
2024/02/28 00:07:18;;;;;;;48.00;12.63;;;13.00;99.90;;;;;;5029540;28;20289;-59
2024/02/28 00:09:45;;;;;;;42.80;12.77;;;13.00;99.90;;;;;;5030787;28;20836;-59
2024/02/28 00:12:15;;;;;;;47.73;13.30;;;13.00;99.90;;;;;;5031460;28;20215;-59
2024/02/28 00:14:42;;;;;;;58.97;14.70;;;13.00;99.90;;;;;;5030880;28;20203;-59
2024/02/28 00:17:09;;;;;;;63.67;14.43;;;13.10;99.90;;;;;;5030871;28;20285;-59
2024/02/28 00:19:36;;;;;;;49.23;13.93;;;13.10;99.90;;;;;;5031747;28;20267;-59
2024/02/28 00:22:03;;;;;;;52.57;12.97;;;13.10;99.90;;;;;;5029474;28;20293;-59
2024/02/28 00:24:31;;;;;;;40.70;13.60;;;13.10;99.90;;;;;;5028117;28;20230;-59
2024/02/28 00:26:58;;;;;;;46.83;14.07;;;13.10;99.90;;;;;;5025307;28;20575;-59
2024/02/28 00:29:25;;;;;;;47.97;12.83;;;13.10;99.90;;;;;;5029020;28;20191;-59
2024/02/28 00:31:52;;;;;;;49.67;14.77;;;13.10;99.90;;;;;;5028937;28;20212;-59
2024/02/28 00:34:19;;;;;;;77.77;14.60;;;13.20;99.90;;;;;;5028402;28;20791;-59
2024/02/28 00:36:46;;;;;;;61.83;15.27;;;13.10;99.90;;;;;;5028588;28;20203;-59
2024/02/28 00:39:22;;;;;;;143.43;16.33;;;13.10;99.90;;;;;;5026171;28;20195;-59
2024/02/28 00:41:50;;;;;;;60.23;14.33;;;13.10;99.90;;;;;;5029315;28;20655;-59
2024/02/28 00:44:17;;;;;;;67.20;14.33;;;13.10;99.90;;;;;;5024175;28;20534;-59
2024/02/28 00:46:44;;;;;;;107.70;14.90;;;13.10;99.90;;;;;;5026866;28;20214;-59
2024/02/28 00:49:11;;;;;;;82.13;14.23;;;13.20;99.90;;;;;;5031336;28;20288;-59
2024/02/28 00:51:38;;;;;;;60.47;13.13;;;13.20;99.90;;;;;;5027266;28;20660;-59
2024/02/28 00:54:05;;;;;;;112.87;13.67;;;13.20;99.90;;;;;;5030440;28;20210;-59
2024/02/28 00:56:32;;;;;;;169.97;14.97;;;13.20;99.90;;;;;;5029224;28;20199;-59
2024/02/28 00:58:59;;;;;;;119.20;16.93;;;13.20;99.90;;;;;;5033175;28;20660;-59
2024/02/28 01:01:26;;;;;;;68.17;15.07;;;13.20;99.90;;;;;;5033474;28;20438;-59
2024/02/28 01:03:54;;;;;;;66.57;13.63;;;13.20;99.90;;;;;;5033971;28;20199;-59
2024/02/28 01:06:21;;;;;;;108.80;14.67;;;13.20;99.90;;;;;;5034287;28;20627;-59
2024/02/28 01:08:48;;;;;;;126.73;14.77;;;13.20;99.90;;;;;;5031582;28;20207;-59
2024/02/28 01:11:15;;;;;;;99.43;15.90;;;13.30;99.90;;;;;;5031040;28;20214;-59
2024/02/28 01:13:43;;;;;;;83.73;15.53;;;13.20;99.90;;;;;;5031478;28;20636;-59
2024/02/28 01:16:10;;;;;;;94.17;15.47;;;13.30;99.90;;;;;;5030869;28;20450;-59
2024/02/28 01:18:37;;;;;;;77.60;14.20;;;13.30;99.90;;;;;;5031414;28;20206;-59
2024/02/28 01:21:04;;;;;;;75.20;12.73;;;13.30;99.90;;;;;;5027729;28;20847;-59
2024/02/28 01:23:31;;;;;;;105.13;14.83;;;13.30;99.90;;;;;;5029398;28;20284;-60
2024/02/28 01:25:59;;;;;;;102.83;14.23;;;13.30;99.90;;;;;;5030722;28;20304;-60
2024/02/28 01:28:26;;;;;;;104.10;14.73;;;13.20;99.90;;;;;;5028226;28;20692;-59
2024/02/28 01:30:53;;;;;;;158.43;16.87;;;13.20;99.90;;;;;;5032369;28;20195;-59
2024/02/28 01:33:20;;;;;;;90.50;14.13;;;13.20;99.90;;;;;;5031041;28;20658;-59
2024/02/28 01:35:47;;;;;;;73.33;13.13;;;13.10;99.90;;;;;;5010015;28;20196;-59
2024/02/28 01:38:14;;;;;;;114.97;14.07;;;13.10;99.90;;;;;;5012831;28;20273;-59
2024/02/28 01:40:46;;;;;;;135.30;15.77;;;13.10;99.90;;;;;;5014039;28;20195;-59
2024/02/28 01:43:13;;;;;;;83.97;13.00;;;13.10;99.90;;;;;;5014153;28;20243;-59
2024/02/28 01:45:40;;;;;;;93.43;12.07;;;13.00;99.90;;;;;;5014085;28;20214;-59
2024/02/28 01:48:10;;;;;;;69.47;12.50;;;13.00;99.90;;;;;;5013255;28;20511;-59
2024/02/28 01:50:38;;;;;;;87.70;14.03;;;13.00;99.90;;;;;;5013567;28;20213;-59
2024/02/28 01:53:08;;;;;;;139.30;15.10;;;13.00;99.90;;;;;;5013902;28;20242;-59
2024/02/28 01:55:36;;;;;;;85.47;13.93;;;13.00;99.90;;;;;;5014032;28;20200;-59
2024/02/28 01:58:05;;;;;;;71.03;13.77;;;13.00;99.90;;;;;;5007941;28;20222;-59
2024/02/28 02:00:33;;;;;;;58.13;12.80;;;13.00;99.90;;;;;;5011248;28;20200;-59
2024/02/28 02:03:03;;;;;;;52.80;13.80;;;13.00;99.90;;;;;;5011753;28;20207;-59
2024/02/28 02:05:30;;;;;;;120.87;15.60;;;13.00;99.90;;;;;;5011663;28;20582;-59
2024/02/28 02:07:58;;;;;;;72.77;13.60;;;13.00;99.90;;;;;;5009683;28;20212;-59
2024/02/28 02:10:26;;;;;;;94.07;14.63;;;13.00;99.90;;;;;;5002864;28;20589;-59
2024/02/28 02:12:53;;;;;;;135.03;16.30;;;13.00;99.90;;;;;;5009919;28;20208;-59
2024/02/28 02:15:20;;;;;;;130.97;15.67;;;13.00;99.90;;;;;;5009759;28;20212;-59
2024/02/28 02:17:47;;;;;;;152.07;16.10;;;13.00;99.90;;;;;;5012320;28;20718;-59
2024/02/28 02:20:15;;;;;;;120.87;14.43;;;13.00;99.90;;;;;;5008850;28;20670;-59
2024/02/28 02:22:42;;;;;;;89.90;15.47;;;13.00;99.90;;;;;;5008696;28;20319;-59
2024/02/28 02:25:09;;;;;;;56.10;14.10;;;12.90;99.90;;;;;;5010812;28;20211;-60
2024/02/28 02:27:37;;;;;;;144.10;15.33;;;12.90;99.90;;;;;;5008571;28;20200;-59
2024/02/28 02:30:04;;;;;;;62.13;13.07;;;12.90;99.90;;;;;;5011984;28;20188;-59
2024/02/28 02:32:32;;;;;;;74.17;15.37;;;12.90;99.90;;;;;;5009198;28;20250;-59
2024/02/28 02:34:59;;;;;;;138.47;14.03;;;12.90;99.90;;;;;;5025298;28;20234;-59
2024/02/28 02:37:26;;;;;;;100.57;14.03;;;12.90;99.90;;;;;;5031435;28;20195;-59
2024/02/28 02:39:53;;;;;;;63.47;12.93;;;12.90;99.90;;;;;;5032713;28;20190;-59
2024/02/28 02:42:20;;;;;;;60.33;14.07;;;12.90;99.90;;;;;;5028241;28;20221;-59
2024/02/28 02:44:48;;;;;;;41.90;12.83;;;12.90;99.90;;;;;;5031149;28;20241;-59
2024/02/28 02:47:15;;;;;;;50.93;13.80;;;12.90;99.90;;;;;;5028120;28;20204;-59
2024/02/28 02:49:42;;;;;;;95.33;15.77;;;12.90;99.90;;;;;;5032906;28;20286;-59
2024/02/28 02:52:09;;;;;;;94.20;16.20;;;12.90;99.90;;;;;;5027596;28;20301;-59
2024/02/28 02:54:36;;;;;;;105.63;15.90;;;12.90;99.90;;;;;;5029610;28;20613;-59
2024/02/28 02:57:04;;;;;;;101.93;15.73;;;12.90;99.90;;;;;;5031899;28;20219;-59
2024/02/28 02:59:31;;;;;;;117.83;14.90;;;12.90;99.90;;;;;;5029461;28;20199;-59
2024/02/28 03:01:58;;;;;;;64.07;14.23;;;12.90;99.90;;;;;;5030633;28;21573;-60
2024/02/28 03:04:25;;;;;;;85.67;15.70;;;12.90;99.90;;;;;;5029271;28;20215;-59
2024/02/28 03:06:52;;;;;;;119.27;16.77;;;12.90;99.90;;;;;;5032540;28;20213;-59
2024/02/28 03:09:19;;;;;;;115.33;18.20;;;12.90;99.90;;;;;;5030132;28;20616;-59
2024/02/28 03:11:46;;;;;;;125.77;17.20;;;12.80;99.90;;;;;;5029731;28;20730;-59
2024/02/28 03:14:13;;;;;;;141.63;18.07;;;12.80;99.90;;;;;;5029160;28;20679;-59
2024/02/28 03:16:42;;;;;;;78.07;15.67;;;12.80;99.90;;;;;;5031459;28;20265;-59
2024/02/28 03:19:10;;;;;;;164.23;19.13;;;12.80;99.90;;;;;;5024195;28;20220;-59
2024/02/28 03:21:38;;;;;;;137.77;18.63;;;12.80;99.90;;;;;;5031290;28;20261;-59
2024/02/28 03:24:05;;;;;;;161.50;19.03;;;12.80;99.90;;;;;;5032225;28;20228;-59
2024/02/28 03:26:32;;;;;;;160.17;19.63;;;12.80;99.90;;;;;;5031914;28;20195;-59
2024/02/28 03:29:00;;;;;;;91.80;19.47;;;12.80;99.90;;;;;;5030398;28;20553;-59
2024/02/28 03:31:27;;;;;;;92.93;17.00;;;12.70;99.90;;;;;;5028768;28;20202;-59
2024/02/28 03:33:54;;;;;;;102.00;17.47;;;12.70;99.90;;;;;;5028982;28;20235;-59
2024/02/28 03:36:21;;;;;;;102.73;17.00;;;12.70;99.90;;;;;;5028917;28;20207;-59
2024/02/28 03:38:49;;;;;;;98.77;15.27;;;12.70;99.90;;;;;;5029113;28;20186;-59
2024/02/28 03:41:16;;;;;;;131.10;16.93;;;12.70;99.90;;;;;;5026469;28;20203;-59
2024/02/28 03:43:43;;;;;;;76.90;12.73;;;12.70;99.90;;;;;;5029451;28;20231;-59
2024/02/28 03:46:10;;;;;;;79.83;12.10;;;12.70;99.90;;;;;;5030922;28;20205;-59
2024/02/28 03:48:37;;;;;;;44.23;7.70;;;12.80;99.90;;;;;;5028941;28;20214;-60
2024/02/28 03:51:05;;;;;;;39.00;8.97;;;12.70;99.90;;;;;;5029710;28;20286;-59
2024/02/28 03:53:32;;;;;;;37.27;8.43;;;12.80;99.90;;;;;;5030733;28;20223;-59
2024/02/28 03:55:59;;;;;;;47.00;8.60;;;12.80;99.90;;;;;;5028577;28;20249;-59
2024/02/28 03:58:28;;;;;;;41.10;8.73;;;12.70;99.90;;;;;;5030909;28;20199;-59
2024/02/28 04:00:55;;;;;;;36.60;8.17;;;12.70;99.90;;;;;;5029480;28;20207;-59
2024/02/28 04:03:22;;;;;;;47.90;7.93;;;12.70;99.90;;;;;;5032394;28;20198;-59
2024/02/28 04:05:49;;;;;;;39.93;7.57;;;12.70;99.90;;;;;;5029173;28;20272;-59
2024/02/28 04:08:16;;;;;;;37.40;6.90;;;12.70;99.90;;;;;;5029183;28;20215;-59
2024/02/28 04:10:43;;;;;;;26.10;6.67;;;12.60;99.90;;;;;;5029843;28;20199;-59
2024/02/28 04:13:11;;;;;;;32.63;7.40;;;12.70;99.90;;;;;;5031789;28;20221;-59
2024/02/28 04:15:38;;;;;;;23.20;7.73;;;12.60;99.90;;;;;;5028637;28;20198;-59
2024/02/28 04:18:05;;;;;;;32.30;7.80;;;12.60;99.90;;;;;;5025522;28;20214;-59
2024/02/28 04:20:33;;;;;;;35.40;7.13;;;12.60;99.90;;;;;;5028609;28;20229;-59
2024/02/28 04:22:59;;;;;;;38.20;7.07;;;12.60;99.90;;;;;;5030038;28;20544;-59
2024/02/28 04:25:26;;;;;;;24.63;6.37;;;12.60;99.90;;;;;;5028846;28;20209;-59
2024/02/28 04:27:54;;;;;;;29.43;6.97;;;12.60;99.90;;;;;;5029527;28;20695;-59
2024/02/28 04:30:21;;;;;;;33.83;5.63;;;12.60;99.90;;;;;;5025021;28;20210;-59
2024/02/28 04:32:48;;;;;;;22.97;6.10;;;12.60;99.90;;;;;;5032181;28;20265;-59
2024/02/28 04:35:18;;;;;;;22.77;5.43;;;12.60;99.90;;;;;;5034374;28;20234;-59
2024/02/28 04:37:49;;;;;;;18.47;5.50;;;12.60;99.90;;;;;;5035377;28;20265;-59
2024/02/28 04:40:17;;;;;;;18.73;5.50;;;12.60;99.90;;;;;;5035296;28;20213;-59
2024/02/28 04:42:44;;;;;;;13.40;5.10;;;12.60;99.90;;;;;;5033952;28;20207;-59
2024/02/28 04:45:12;;;;;;;15.77;4.33;;;12.60;99.90;;;;;;5035554;28;20219;-60
2024/02/28 04:47:40;;;;;;;21.80;4.60;;;12.60;99.90;;;;;;5034831;28;20215;-59
2024/02/28 04:50:11;;;;;;;14.10;4.70;;;12.50;99.90;;;;;;5033449;28;20245;-59
2024/02/28 04:52:38;;;;;;;12.57;4.77;;;12.60;99.90;;;;;;5035081;28;20219;-60
2024/02/28 04:55:06;;;;;;;18.90;5.93;;;12.60;99.90;;;;;;5018939;28;20203;-59
2024/02/28 04:57:35;;;;;;;21.37;4.50;;;12.50;99.90;;;;;;5049566;28;20213;-59
2024/02/28 05:00:04;;;;;;;22.03;4.80;;;12.50;99.90;;;;;;5035817;28;20234;-60
2024/02/28 05:02:31;;;;;;;20.60;4.67;;;12.50;99.90;;;;;;5026831;28;20212;-59
2024/02/28 05:04:58;;;;;;;18.53;5.23;;;12.50;99.90;;;;;;5036768;28;20205;-60
2024/02/28 05:07:26;;;;;;;13.10;5.20;;;12.50;99.90;;;;;;5034843;28;20196;-60
2024/02/28 05:09:53;;;;;;;20.93;5.27;;;12.50;99.90;;;;;;5034798;28;20206;-59
2024/02/28 05:12:20;;;;;;;16.73;5.03;;;12.50;99.90;;;;;;5046713;28;20219;-59
2024/02/28 05:14:48;;;;;;;14.20;7.07;;;12.50;99.90;;;;;;5030206;28;20204;-59
2024/02/28 05:17:19;;;;;;;22.67;5.93;;;12.50;99.90;;;;;;5033408;28;20215;-60
2024/02/28 05:19:47;;;;;;;25.43;6.33;;;12.50;99.90;;;;;;5036058;28;20216;-59
2024/02/28 05:22:15;;;;;;;25.70;7.17;;;12.50;99.90;;;;;;5034089;28;20242;-59
2024/02/28 05:24:46;;;;;;;33.10;6.57;;;12.60;99.90;;;;;;5032935;28;20208;-60
2024/02/28 05:27:14;;;;;;;28.73;6.90;;;12.60;99.90;;;;;;5029960;28;20524;-60
2024/02/28 05:29:43;;;;;;;27.07;5.93;;;12.60;99.90;;;;;;5034886;28;20679;-60
2024/02/28 05:32:12;;;;;;;32.00;6.37;;;12.60;99.90;;;;;;5015934;28;20205;-60
2024/02/28 05:34:41;;;;;;;18.20;4.93;;;12.50;99.90;;;;;;5032360;28;20588;-59
2024/02/28 05:37:10;;;;;;;28.53;5.77;;;12.50;99.90;;;;;;5031669;28;20210;-59
2024/02/28 05:39:38;;;;;;;31.20;7.00;;;12.50;99.90;;;;;;5050090;28;20709;-59
2024/02/28 05:42:06;;;;;;;27.60;6.33;;;12.50;99.90;;;;;;5035318;28;20211;-59
2024/02/28 05:44:35;;;;;;;27.50;8.10;;;12.50;99.90;;;;;;5013327;28;20264;-59
2024/02/28 05:47:05;;;;;;;29.43;7.53;;;12.50;99.90;;;;;;5033010;28;20596;-59
2024/02/28 05:49:33;;;;;;;24.43;7.40;;;12.50;99.90;;;;;;5022694;28;20720;-59
2024/02/28 05:52:01;;;;;;;17.53;6.37;;;12.50;99.90;;;;;;5034492;28;20215;-59
2024/02/28 05:54:29;;;;;;;27.47;7.40;;;12.50;99.90;;;;;;5010718;28;20312;-59
2024/02/28 05:56:57;;;;;;;40.03;7.80;;;12.50;99.90;;;;;;5027042;28;20652;-59
2024/02/28 05:59:26;;;;;;;22.87;7.07;;;12.40;99.90;;;;;;5027126;28;20211;-59
2024/02/28 06:01:54;;;;;;;27.27;6.80;;;12.40;99.90;;;;;;5032467;28;20222;-59
2024/02/28 06:04:21;;;;;;;27.33;7.30;;;12.40;99.90;;;;;;5035023;28;20210;-59
2024/02/28 06:06:50;;;;;;;27.57;6.27;;;12.40;99.90;;;;;;5032892;28;20253;-59
2024/02/28 06:09:17;;;;;;;23.43;6.90;;;12.40;99.90;;;;;;5031945;28;20209;-59
2024/02/28 06:11:44;;;;;;;21.03;6.63;;;12.40;99.90;;;;;;5031618;28;20300;-58
2024/02/28 06:14:11;;;;;;;19.60;7.97;;;12.40;99.90;;;;;;5028945;28;20237;-59
2024/02/28 06:16:38;;;;;;;29.87;7.37;;;12.40;99.90;;;;;;5030832;28;20851;-59
2024/02/28 06:19:05;;;;;;;24.00;7.27;;;12.40;99.90;;;;;;5031963;28;20207;-59
2024/02/28 06:21:33;;;;;;;26.70;7.57;;;12.40;99.90;;;;;;5030478;28;20203;-59
2024/02/28 06:24:00;;;;;;;26.70;7.80;;;12.40;99.90;;;;;;5031860;28;20222;-59
2024/02/28 06:26:27;;;;;;;27.60;7.33;;;12.40;99.90;;;;;;5031937;28;20199;-59
2024/02/28 06:29:00;;;;;;;27.33;8.47;;;12.40;99.90;;;;;;5031363;28;20199;-59
2024/02/28 06:31:31;;;;;;;23.27;7.20;;;12.40;99.90;;;;;;5032330;28;20257;-59
2024/02/28 06:33:58;;;;;;;22.27;7.30;;;12.40;99.90;;;;;;5030537;28;20303;-59
2024/02/28 06:36:25;;;;;;;25.43;7.90;;;12.40;99.90;;;;;;5029629;28;20215;-59
2024/02/28 06:38:53;;;;;;;27.37;7.83;;;12.40;99.90;;;;;;5027421;28;20261;-59
2024/02/28 06:41:20;;;;;;;25.33;7.60;;;12.40;99.90;;;;;;5031544;28;20288;-59
2024/02/28 06:43:47;;;;;;;18.33;8.13;;;12.40;99.90;;;;;;5029379;28;20231;-59
2024/02/28 06:46:14;;;;;;;19.70;7.70;;;12.40;99.90;;;;;;5031780;28;20273;-59
2024/02/28 06:48:41;;;;;;;22.73;7.93;;;12.40;99.90;;;;;;5030597;28;20204;-59
2024/02/28 06:51:08;;;;;;;28.47;8.70;;;12.40;99.90;;;;;;5028146;28;20274;-59
2024/02/28 06:53:35;;;;;;;32.17;8.40;;;12.40;99.90;;;;;;5030599;28;20309;-59
2024/02/28 06:56:03;;;;;;;24.40;8.97;;;12.40;99.90;;;;;;5028636;28;20202;-59
2024/02/28 06:58:30;;;;;;;30.00;10.07;;;12.40;99.90;;;;;;5030314;28;20665;-59
2024/02/28 07:00:57;;;;;;;22.87;9.27;;;12.40;99.90;;;;;;5029571;28;20191;-59
2024/02/28 07:03:28;;;;;;;31.03;9.10;;;12.50;99.90;;;;;;5028383;28;20565;-59
2024/02/28 07:05:55;;;;;;;21.27;8.33;;;12.50;99.90;;;;;;5029247;28;20561;-59
2024/02/28 07:08:22;;;;;;;24.87;9.40;;;12.50;99.90;;;;;;5029401;28;20548;-59
2024/02/28 07:10:53;;;;;;;20.73;9.27;;;12.50;99.90;;;;;;5030207;28;20201;-59
2024/02/28 07:13:21;;;;;;;21.70;9.07;;;12.50;99.90;;;;;;5030644;28;20310;-59
2024/02/28 07:15:54;;;;;;;33.70;10.13;;;12.40;99.90;;;;;;5031042;28;20191;-59
2024/02/28 07:18:21;;;;;;;28.20;9.03;;;12.50;99.90;;;;;;5031571;28;20222;-59
2024/02/28 07:20:48;;;;;;;29.57;8.97;;;12.50;99.90;;;;;;5028558;28;20206;-59
2024/02/28 07:23:15;;;;;;;19.40;8.83;;;12.50;99.90;;;;;;5027723;28;20207;-59
2024/02/28 07:25:42;;;;;;;19.83;9.43;;;12.50;99.90;;;;;;5030143;28;20199;-59
2024/02/28 07:28:09;;;;;;;23.47;9.00;;;12.50;99.90;;;;;;5030083;28;20202;-59
2024/02/28 07:30:37;;;;;;;33.17;11.60;;;12.50;99.90;;;;;;5030676;28;20360;-59
2024/02/28 07:33:05;;;;;;;30.33;10.07;;;12.50;99.90;;;;;;5029911;28;20223;-59
2024/02/28 07:35:32;;;;;;;25.30;9.53;;;12.50;99.90;;;;;;5027524;28;20229;-59
2024/02/28 07:37:59;;;;;;;27.37;10.03;;;12.50;99.90;;;;;;5029241;28;20536;-59
2024/02/28 07:40:26;;;;;;;21.10;10.30;;;12.50;99.90;;;;;;5027069;28;20195;-59
2024/02/28 07:42:53;;;;;;;29.73;10.73;;;12.60;99.90;;;;;;5028643;28;20293;-59
2024/02/28 07:45:21;;;;;;;24.63;10.27;;;12.50;99.90;;;;;;5029967;28;20238;-59
2024/02/28 07:47:48;;;;;;;19.10;10.20;;;12.50;99.90;;;;;;5030614;28;20203;-59
2024/02/28 07:50:16;;;;;;;27.27;10.70;;;12.50;99.90;;;;;;5029337;28;20206;-59
2024/02/28 07:52:43;;;;;;;25.87;10.33;;;12.60;99.90;;;;;;5030669;28;20194;-59
2024/02/28 07:55:10;;;;;;;27.13;10.43;;;12.50;99.90;;;;;;5030486;28;20278;-59
2024/02/28 07:57:37;;;;;;;32.63;11.83;;;12.50;99.90;;;;;;5031129;28;20203;-59
2024/02/28 08:00:05;;;;;;;22.13;10.07;;;12.50;99.90;;;;;;5031852;28;20556;-59
2024/02/28 08:02:39;;;;;;;26.97;9.47;;;12.50;99.90;;;;;;5031516;28;20260;-59
2024/02/28 08:05:07;;;;;;;26.40;9.77;;;12.60;99.90;;;;;;5031254;28;20280;-59
2024/02/28 08:07:34;;;;;;;26.80;9.57;;;12.50;99.90;;;;;;5032164;28;20199;-59
2024/02/28 08:10:05;;;;;;;22.63;9.97;;;12.60;99.90;;;;;;5035205;28;20211;-59
2024/02/28 08:12:32;;;;;;;26.17;9.57;;;12.60;99.90;;;;;;5030644;28;20213;-59
2024/02/28 08:14:59;;;;;;;26.80;11.90;;;12.60;99.90;;;;;;5033521;28;20526;-60
2024/02/28 08:17:26;;;;;;;28.67;10.17;;;12.70;99.90;;;;;;5031885;28;20629;-59
2024/02/28 08:19:54;;;;;;;26.47;8.40;;;12.70;99.90;;;;;;5034485;28;20597;-60
2024/02/28 08:22:21;;;;;;;24.37;8.97;;;12.70;99.90;;;;;;5030603;28;20222;-59
2024/02/28 08:24:51;;;;;;;23.53;8.50;;;12.70;99.90;;;;;;5032689;28;20264;-57
2024/02/28 08:27:19;;;;;;;18.33;8.07;;;12.70;99.90;;;;;;5033521;28;20195;-59
2024/02/28 08:29:47;;;;;;;21.13;7.63;;;12.70;99.90;;;;;;5033194;28;20286;-58
2024/02/28 08:32:14;;;;;;;32.43;9.63;;;12.80;99.90;;;;;;5031398;28;20200;-59
2024/02/28 08:34:47;;;;;;;24.53;8.13;;;12.80;99.90;;;;;;5031597;28;20230;-58
2024/02/28 08:37:15;;;;;;;27.73;8.83;;;12.80;99.90;;;;;;5032328;28;20212;-58
2024/02/28 08:39:42;;;;;;;22.93;8.00;;;12.80;99.90;;;;;;5033702;28;20187;-58
2024/02/28 08:42:10;;;;;;;18.17;7.67;;;12.80;99.90;;;;;;5033898;28;20198;-57
2024/02/28 08:44:37;;;;;;;29.00;8.00;;;12.80;99.90;;;;;;5034486;28;20633;-61
2024/02/28 08:47:04;;;;;;;22.00;6.97;;;12.80;99.90;;;;;;5032426;28;20225;-59
2024/02/28 08:49:31;;;;;;;24.77;8.13;;;12.90;99.90;;;;;;5033136;28;20209;-58
2024/02/28 08:51:58;;;;;;;25.37;7.13;;;12.90;99.90;;;;;;5034906;28;20195;-59
2024/02/28 08:54:25;;;;;;;18.97;6.97;;;13.00;99.90;;;;;;5033124;28;20581;-59
2024/02/28 08:56:52;;;;;;;18.17;6.70;;;13.00;99.90;;;;;;5033079;28;20286;-58
2024/02/28 08:59:29;;;;;;;11.80;6.50;;;13.00;99.90;;;;;;5030650;28;20187;-58
2024/02/28 09:01:56;;;;;;;16.33;6.20;;;13.00;99.90;;;;;;5029902;28;20633;-58
2024/02/28 09:04:23;;;;;;;18.97;6.77;;;13.10;99.90;;;;;;5034722;28;20206;-59
2024/02/28 09:06:50;;;;;;;14.47;6.03;;;13.10;99.90;;;;;;5029708;28;21044;-58
2024/02/28 09:09:17;;;;;;;18.37;6.87;;;13.10;99.90;;;;;;5031526;28;20218;-58
2024/02/28 09:11:44;;;;;;;19.13;6.50;;;13.20;99.90;;;;;;5030677;28;20601;-58
2024/02/28 09:14:12;;;;;;;21.27;6.23;;;13.20;99.90;;;;;;5032600;28;20568;-59
2024/02/28 09:16:39;;;;;;;26.33;7.10;;;13.20;99.90;;;;;;5032145;28;20283;-59
2024/02/28 09:19:06;;;;;;;21.63;6.57;;;13.20;99.90;;;;;;5031721;28;20209;-58
2024/02/28 09:21:33;;;;;;;25.17;7.20;;;13.20;99.90;;;;;;5032378;28;20215;-58
2024/02/28 09:24:01;;;;;;;28.13;6.67;;;13.30;99.90;;;;;;5030837;28;20191;-59
2024/02/28 09:26:28;;;;;;;15.73;6.43;;;13.30;99.90;;;;;;5032456;28;20225;-59
2024/02/28 09:28:55;;;;;;;25.47;6.43;;;13.30;99.90;;;;;;5032741;28;20578;-59
2024/02/28 09:31:22;;;;;;;16.60;6.17;;;13.40;99.90;;;;;;5033527;28;20225;-58
2024/02/28 09:33:49;;;;;;;19.97;5.87;;;13.40;99.90;;;;;;5032900;28;20258;-58
2024/02/28 09:36:16;;;;;;;11.07;4.77;;;13.40;99.90;;;;;;5034030;28;20226;-58
2024/02/28 09:38:44;;;;;;;25.53;7.27;;;13.40;99.90;;;;;;5030196;28;20199;-60
2024/02/28 09:41:16;;;;;;;14.80;5.80;;;13.40;99.90;;;;;;5033766;28;20203;-59
2024/02/28 09:43:44;;;;;;;16.90;5.40;;;13.40;99.90;;;;;;5031656;28;20295;-59
2024/02/28 09:46:12;;;;;;;17.17;6.23;;;13.40;99.90;;;;;;5030377;28;20313;-59
2024/02/28 09:48:40;;;;;;;16.20;7.10;;;13.40;99.90;;;;;;5024252;28;20704;-59
2024/02/28 09:51:12;;;;;;;13.23;6.43;;;13.40;99.90;;;;;;5028497;28;20209;-60
2024/02/28 09:53:40;;;;;;;15.20;6.33;;;13.40;99.90;;;;;;5031815;28;20222;-58
2024/02/28 09:56:07;;;;;;;18.80;5.60;;;13.40;99.90;;;;;;5024485;28;20211;-60
2024/02/28 09:58:35;;;;;;;12.20;6.10;;;13.40;99.90;;;;;;5032339;28;20214;-58
2024/02/28 10:01:04;;;;;;;11.50;5.20;;;13.40;99.90;;;;;;5027333;28;20282;-58
2024/02/28 10:03:32;;;;;;;15.23;5.93;;;13.50;99.90;;;;;;5031683;28;20219;-59
2024/02/28 10:05:59;;;;;;;13.27;5.83;;;13.50;99.90;;;;;;5029866;28;20302;-59
2024/02/28 10:08:31;;;;;;;13.57;6.67;;;13.60;99.90;;;;;;5029251;28;20202;-59
2024/02/28 10:10:59;;;;;;;17.10;5.43;;;13.60;99.90;;;;;;5032814;28;20211;-60
2024/02/28 10:13:26;;;;;;;15.47;6.33;;;13.60;99.90;;;;;;5031440;28;20234;-58
2024/02/28 10:15:54;;;;;;;13.93;6.00;;;13.60;99.90;;;;;;5033349;28;20199;-58
2024/02/28 10:18:21;;;;;;;13.03;5.27;;;13.60;99.90;;;;;;5029721;28;20207;-58
2024/02/28 10:20:48;;;;;;;21.80;5.97;;;13.60;99.90;;;;;;5029066;28;20191;-60
2024/02/28 10:23:16;;;;;;;16.27;5.80;;;13.60;99.90;;;;;;5032519;28;20655;-58
2024/02/28 10:25:47;;;;;;;11.53;4.93;;;13.60;99.90;;;;;;5032431;28;20233;-58
2024/02/28 10:28:17;;;;;;;11.53;6.07;;;13.50;99.90;;;;;;5032422;28;20203;-59
2024/02/28 10:30:44;;;;;;;14.43;5.20;;;13.50;99.90;;;;;;5026645;28;20281;-58
2024/02/28 10:33:13;;;;;;;10.73;5.37;;;13.50;99.90;;;;;;5026469;28;20572;-58
2024/02/28 10:35:44;;;;;;;14.53;4.87;;;13.40;99.90;;;;;;5030914;28;20225;-59
2024/02/28 10:38:13;;;;;;;10.10;5.40;;;13.30;99.90;;;;;;5029923;28;20601;-58
2024/02/28 10:40:41;;;;;;;10.87;5.27;;;13.30;99.90;;;;;;5028554;28;20638;-59
2024/02/28 10:43:09;;;;;;;10.77;5.80;;;13.30;99.90;;;;;;5028938;28;20290;-58
2024/02/28 10:45:40;;;;;;;16.27;6.87;;;13.20;99.90;;;;;;5028265;28;20210;-59
2024/02/28 10:48:27;;;;;;;13.07;7.17;;;13.20;99.90;;;;;;5029228;28;20230;-59
2024/02/28 10:50:55;;;;;;;14.43;6.20;;;13.20;99.90;;;;;;5027099;28;20202;-59
2024/02/28 10:53:45;;;;;;;13.43;5.57;;;13.20;99.90;;;;;;5029736;28;20225;-58
2024/02/28 10:56:16;;;;;;;13.57;5.47;;;13.10;99.90;;;;;;5028628;28;20208;-58
2024/02/28 10:58:56;;;;;;;12.00;5.40;;;13.10;99.90;;;;;;5031722;28;20207;-59
2024/02/28 11:01:23;;;;;;;11.67;5.60;;;13.10;99.90;;;;;;5031590;28;20780;-58
2024/02/28 11:03:52;;;;;;;9.53;5.90;;;13.10;99.90;;;;;;5030874;28;20198;-58
2024/02/28 11:06:21;;;;;;;11.97;5.67;;;13.10;99.90;;;;;;5029304;28;20203;-59
2024/02/28 11:08:54;;;;;;;9.63;5.57;;;13.00;99.90;;;;;;5029895;28;20195;-58
2024/02/28 11:11:22;;;;;;;14.40;5.80;;;13.00;99.90;;;;;;5031676;28;20207;-58
2024/02/28 11:13:57;;;;;;;13.13;6.13;;;13.00;99.90;;;;;;5028358;28;20295;-58
2024/02/28 11:16:33;;;;;;;10.63;6.33;;;13.00;99.90;;;;;;5029682;28;20206;-59
2024/02/28 11:19:02;;;;;;;9.53;6.20;;;13.00;99.90;;;;;;5030967;28;20237;-58
2024/02/28 11:21:34;;;;;;;11.17;6.90;;;13.00;99.90;;;;;;5026029;28;20206;-58
2024/02/28 11:24:02;;;;;;;12.90;6.33;;;13.10;99.90;;;;;;5030701;28;20243;-59
2024/02/28 11:26:29;;;;;;;14.33;6.90;;;13.10;99.90;;;;;;5028060;28;20349;-58
2024/02/28 11:28:56;;;;;;;10.60;6.43;;;13.20;99.90;;;;;;5028697;28;20206;-58
2024/02/28 11:31:23;;;;;;;10.23;5.93;;;13.20;99.90;;;;;;5030873;28;20202;-59
2024/02/28 11:33:50;;;;;;;10.60;6.00;;;13.20;99.90;;;;;;5027411;28;20243;-59
2024/02/28 11:36:19;;;;;;;12.90;5.90;;;13.10;99.90;;;;;;5028189;28;20257;-59
2024/02/28 11:38:46;;;;;;;13.70;6.00;;;13.20;99.90;;;;;;5028465;28;20611;-58
2024/02/28 11:41:13;;;;;;;8.30;5.73;;;13.10;99.90;;;;;;5030686;28;20281;-59
2024/02/28 11:43:40;;;;;;;11.50;6.17;;;13.10;99.90;;;;;;5029950;28;20207;-57
2024/02/28 11:46:18;;;;;;;10.57;5.87;;;13.10;99.90;;;;;;5030631;28;20210;-57
2024/02/28 11:48:46;;;;;;;15.47;6.33;;;13.10;99.90;;;;;;5030169;28;20242;-59
2024/02/28 11:51:13;;;;;;;11.37;6.47;;;13.10;99.90;;;;;;5030274;28;20203;-58
2024/02/28 11:53:40;;;;;;;12.60;5.57;;;13.10;99.90;;;;;;5030496;28;20195;-58
2024/02/28 11:56:08;;;;;;;9.17;5.20;;;13.10;99.90;;;;;;5030469;28;20277;-58
2024/02/28 11:58:35;;;;;;;10.60;5.53;;;13.00;99.90;;;;;;5030969;28;20232;-58
2024/02/28 12:01:03;;;;;;;13.23;5.10;;;13.00;99.90;;;;;;5030253;28;20253;-58
2024/02/28 12:03:30;;;;;;;10.20;5.70;;;13.00;99.90;;;;;;5030481;28;20206;-58
2024/02/28 12:05:58;;;;;;;9.00;5.63;;;13.00;99.90;;;;;;5026263;28;20198;-58
2024/02/28 12:08:26;;;;;;;17.33;5.67;;;13.00;99.90;;;;;;5030308;28;20194;-58
2024/02/28 12:11:06;;;;;;;15.40;5.50;;;12.90;99.90;;;;;;5029930;28;20283;-58
2024/02/28 12:13:33;;;;;;;6.50;4.93;;;12.80;99.90;;;;;;5030030;28;20207;-58
2024/02/28 12:16:01;;;;;;;12.00;5.10;;;12.80;99.90;;;;;;5028979;28;20674;-58
2024/02/28 12:18:29;;;;;;;13.63;5.67;;;12.70;99.90;;;;;;5030565;28;20199;-58
2024/02/28 12:20:57;;;;;;;12.57;5.10;;;12.70;99.90;;;;;;5027726;28;20202;-58
2024/02/28 12:23:24;;;;;;;13.30;4.97;;;12.60;99.90;;;;;;5032077;28;20531;-58
2024/02/28 12:25:51;;;;;;;12.37;5.20;;;12.60;99.90;;;;;;5030737;28;20195;-59
2024/02/28 12:28:18;;;;;;;12.13;5.07;;;12.60;99.90;;;;;;5030589;28;20229;-59
2024/02/28 12:30:45;;;;;;;17.47;5.80;;;12.60;99.90;;;;;;5027278;28;20207;-59
2024/02/28 12:33:13;;;;;;;14.27;5.70;;;12.50;99.90;;;;;;5030173;28;20203;-59
2024/02/28 12:35:41;;;;;;;11.73;6.23;;;12.50;99.90;;;;;;5028397;28;20596;-58
2024/02/28 12:38:09;;;;;;;13.30;5.70;;;12.50;99.90;;;;;;5029625;28;20223;-58